• Join FlightAware (Why Join?)
  • Login
  • US Flag 
07:36AM EST


 

Airport Tracker/Info


-or-


 

Live Flight TrackerFlight Track Log ✈ TMC495 ✈ 12-Jul-2013 ✈ KMVY - KFOK

Flight Track Log - Related Links

Times and Time Zones

All times are in EDT time to prevent confusion due to time zone crossing. See the TMC495 flight status page for this flight to view local times or setup timezone preferences in your user account.

Time Position Orientation Groundspeed Altitude Reporting Facility
EDT Latitude Longitude Course Direction KTS MPH feet Rate Location/Type
03:11PM 42.1833 -70.8000 226° Southwest 281 323 9,000  Level KA90
03:13PM 42.1604 -70.8323 226° Southwest  Level Estimated
03:20PM 42.0509 -70.9864 226° Southwest  Level Estimated
03:21PM 42.0352 -71.0083 226° Southwest  Level Estimated
03:22PM 42.0195 -71.0303 226° Southwest  Level Estimated
03:23PM 42.0039 -71.0522 226° Southwest  Level Estimated
03:24PM 41.9882 -71.0742 226° Southwest  Level Estimated
03:25PM 41.9725 -71.0961 226° Southwest  Level Estimated
03:26PM 41.9568 -71.1180 226° Southwest  Level Estimated
03:27PM 41.9411 -71.1399 226° Southwest  Level Estimated
03:28PM 41.9254 -71.1618 226° Southwest  Level Estimated
03:29PM 41.9097 -71.1837 226° Southwest  Level Estimated
03:30PM 41.8940 -71.2055 226° Southwest  Level Estimated
03:31PM 41.8783 -71.2274 226° Southwest  Level Estimated
03:32PM 41.8626 -71.2492 226° Southwest  Level Estimated
03:33PM 41.8469 -71.2710 226° Southwest  Level Estimated
03:34PM 41.8312 -71.2929 226° Southwest  Level Estimated
03:35PM 41.8154 -71.3147 226° Southwest  Level Estimated
03:36PM 41.7997 -71.3365 226° Southwest  Level Estimated
03:37PM 41.7840 -71.3583 226° Southwest  Level Estimated
03:38PM 41.7682 -71.3800 226° Southwest  Level Estimated
03:39PM 41.7525 -71.4018 226° Southwest  Level Estimated
03:40PM 41.7368 -71.4236 226° Southwest  Level Estimated
03:41PM 41.7210 -71.4453 226° Southwest  Level Estimated
03:42PM 41.7053 -71.4671 226° Southwest  Level Estimated
03:43PM 41.6895 -71.4888 226° Southwest  Level Estimated
03:44PM 41.6737 -71.5105 226° Southwest  Level Estimated
03:45PM 41.6580 -71.5322 226° Southwest  Level Estimated
03:46PM 41.6422 -71.5539 226° Southwest  Level Estimated
03:47PM 41.6264 -71.5756 226° Southwest  Level Estimated
03:48PM 41.6106 -71.5972 226° Southwest  Level Estimated
03:49PM 41.5949 -71.6189 226° Southwest  Level Estimated
03:50PM 41.5791 -71.6405 226° Southwest  Level Estimated
03:51PM 41.5633 -71.6622 226° Southwest  Level Estimated
03:52PM 41.5475 -71.6838 226° Southwest  Level Estimated
03:53PM 41.5317 -71.7054 226° Southwest  Level Estimated
03:54PM 41.5159 -71.7271 226° Southwest  Level Estimated
03:55PM 41.5001 -71.7486 226° Southwest  Level Estimated
03:56PM 41.4843 -71.7702 226° Southwest  Level Estimated
03:57PM 41.4685 -71.7918 226° Southwest  Level Estimated
03:58PM 41.4526 -71.8134 226° Southwest  Level Estimated
03:59PM 41.4368 -71.8350 226° Southwest  Level Estimated
04:00PM 41.4210 -71.8565 226° Southwest  Level Estimated
04:01PM 41.4052 -71.8780 226° Southwest  Level Estimated
04:02PM 41.3893 -71.8996 226° Southwest  Level Estimated
04:03PM 41.3735 -71.9211 226° Southwest  Level Estimated
04:04PM 41.3577 -71.9426 226° Southwest  Level Estimated
04:05PM 41.3418 -71.9641 226° Southwest  Level Estimated
04:06PM 41.3260 -71.9855 226° Southwest  Level Estimated
04:07PM 41.3101 -72.0070 225° Southwest  Level Estimated
04:08PM 41.2943 -72.0285 225° Southwest  Level Estimated
04:09PM 41.2784 -72.0499 225° Southwest  Level Estimated
04:10PM 41.2625 -72.0714 225° Southwest  Level Estimated
04:11PM 41.2467 -72.0928 225° Southwest  Level Estimated
04:12PM 41.2308 -72.1142 225° Southwest  Level Estimated
04:13PM 41.2149 -72.1356 225° Southwest  Level Estimated
04:14PM 41.1990 -72.1570 225° Southwest  Level Estimated
04:15PM 41.1831 -72.1784 225° Southwest  Level Estimated
04:16PM 41.1672 -72.1998 225° Southwest  Level Estimated
04:17PM 41.1513 -72.2212 225° Southwest  Level Estimated
04:18PM 41.1354 -72.2425 225° Southwest  Level Estimated
04:19PM 41.1195 -72.2639 225° Southwest  Level Estimated
04:20PM 41.1036 -72.2852 225° Southwest  Level Estimated
04:21PM 41.0877 -72.3065 225° Southwest  Level Estimated
04:22PM 41.0718 -72.3279 225° Southwest  Level Estimated
04:23PM 41.0559 -72.3492 225° Southwest  Level Estimated
04:24PM 41.0400 -72.3705 225° Southwest  Level Estimated
04:25PM 41.0241 -72.3918 225° Southwest  Level Estimated
04:26PM 41.0081 -72.4130 225° Southwest  Level Estimated
04:27PM 40.9922 -72.4343 225° Southwest  Level Estimated
04:28PM 40.9762 -72.4556 225° Southwest  Level Estimated
04:29PM 40.9603 -72.4768 225° Southwest  Level Estimated
04:30PM 40.9444 -72.4980 225° Southwest  Level Estimated
04:31PM 40.9284 -72.5192 225° Southwest  Level Estimated
04:32PM 40.9125 -72.5405 225° Southwest  Level Estimated
04:33PM 40.8965 -72.5617 225° Southwest  Level Estimated
04:34PM 40.8806 -72.5828 225° Southwest  Level Estimated
04:35PM 40.8646 -72.6040 225° Southwest  Level Estimated
04:36PM 40.8486 -72.6252 225° Southwest  Level Estimated
04:37PM 40.8437 -72.6318 225° Southwest  Level Estimated
04:38PM 40.8437 -72.6318 153° Southeast  Level Estimated
04:39PM 40.8437 -72.6318 153° Southeast  Level Estimated
04:40PM 40.8437 -72.6318 153° Southeast  Level Estimated
04:41PM 40.8437 -72.6318 153° Southeast  Level Estimated
04:42PM 40.8437 -72.6318 153° Southeast  Level Estimated
04:43PM 40.8437 -72.6318 153° Southeast  Level Estimated
04:44PM 40.8437 -72.6318 153° Southeast  Level Estimated
04:45PM 40.8437 -72.6318 153° Southeast  Level Estimated
04:46PM 40.8437 -72.6318 153° Southeast  Level Estimated
04:47PM 40.8437 -72.6318 153° Southeast  Level Estimated
04:48PM 40.8437 -72.6318 153° Southeast  Level Estimated
04:49PM 40.8437 -72.6318 153° Southeast  Level Estimated
04:50PM 40.8437 -72.6318 153° Southeast  Level Estimated
04:51PM 40.8437 -72.6318 153° Southeast  Level Estimated
04:52PM 40.8437 -72.6318 153° Southeast  Level Estimated
04:53PM 40.8437 -72.6318 153° Southeast  Level Estimated